sensor_id;sensor_type;location;lat;lon;timestamp;pressure;altitude;pressure_sealevel;temperature;humidity
57114;BME280;42994;51.606;9.988;2024-02-23T00:01:32;96174.72;;;7.30;100.00
57114;BME280;42994;51.606;9.988;2024-02-23T00:03:58;96180.22;;;7.23;100.00
57114;BME280;42994;51.606;9.988;2024-02-23T00:06:25;96208.47;;;7.24;100.00
57114;BME280;42994;51.606;9.988;2024-02-23T00:08:53;96193.47;;;7.35;100.00
57114;BME280;42994;51.606;9.988;2024-02-23T00:11:21;96198.13;;;7.28;100.00
57114;BME280;42994;51.606;9.988;2024-02-23T00:13:48;96228.78;;;7.13;100.00
57114;BME280;42994;51.606;9.988;2024-02-23T00:16:14;96217.69;;;7.34;100.00
57114;BME280;42994;51.606;9.988;2024-02-23T00:18:41;96207.47;;;7.13;100.00
57114;BME280;42994;51.606;9.988;2024-02-23T00:21:08;96215.41;;;7.25;100.00
57114;BME280;42994;51.606;9.988;2024-02-23T00:23:34;96233.41;;;7.18;100.00
57114;BME280;42994;51.606;9.988;2024-02-23T00:26:01;96233.88;;;7.15;100.00
57114;BME280;42994;51.606;9.988;2024-02-23T00:28:29;96219.28;;;7.18;100.00
57114;BME280;42994;51.606;9.988;2024-02-23T00:30:56;96221.06;;;7.12;100.00
57114;BME280;42994;51.606;9.988;2024-02-23T00:33:22;96229.75;;;7.07;100.00
57114;BME280;42994;51.606;9.988;2024-02-23T00:35:49;96229.84;;;7.12;100.00
57114;BME280;42994;51.606;9.988;2024-02-23T00:38:16;96246.50;;;7.20;100.00
57114;BME280;42994;51.606;9.988;2024-02-23T00:40:42;96263.34;;;7.08;100.00
57114;BME280;42994;51.606;9.988;2024-02-23T00:43:09;96260.38;;;7.22;100.00
57114;BME280;42994;51.606;9.988;2024-02-23T00:45:37;96269.78;;;7.12;100.00
57114;BME280;42994;51.606;9.988;2024-02-23T00:48:04;96267.59;;;7.09;100.00
57114;BME280;42994;51.606;9.988;2024-02-23T00:50:32;96269.78;;;7.12;100.00
57114;BME280;42994;51.606;9.988;2024-02-23T00:52:58;96267.91;;;7.25;100.00
57114;BME280;42994;51.606;9.988;2024-02-23T00:55:25;96255.28;;;7.20;100.00
57114;BME280;42994;51.606;9.988;2024-02-23T00:57:52;96276.25;;;7.17;100.00
57114;BME280;42994;51.606;9.988;2024-02-23T01:00:18;96311.34;;;7.13;100.00
57114;BME280;42994;51.606;9.988;2024-02-23T01:02:46;96282.53;;;7.10;100.00
57114;BME280;42994;51.606;9.988;2024-02-23T01:05:13;96299.94;;;7.01;100.00
57114;BME280;42994;51.606;9.988;2024-02-23T01:07:40;96346.94;;;7.07;100.00
57114;BME280;42994;51.606;9.988;2024-02-23T01:10:07;96350.44;;;6.96;100.00
57114;BME280;42994;51.606;9.988;2024-02-23T01:12:35;96356.25;;;6.81;100.00
57114;BME280;42994;51.606;9.988;2024-02-23T01:15:02;96355.31;;;6.64;100.00
57114;BME280;42994;51.606;9.988;2024-02-23T01:17:29;96376.59;;;6.64;100.00
57114;BME280;42994;51.606;9.988;2024-02-23T01:19:57;96376.50;;;6.47;100.00
57114;BME280;42994;51.606;9.988;2024-02-23T01:22:23;96384.69;;;6.45;100.00
57114;BME280;42994;51.606;9.988;2024-02-23T01:24:50;96392.69;;;6.45;100.00
57114;BME280;42994;51.606;9.988;2024-02-23T01:27:17;96417.22;;;6.35;100.00
57114;BME280;42994;51.606;9.988;2024-02-23T01:29:43;96412.47;;;6.38;100.00
57114;BME280;42994;51.606;9.988;2024-02-23T01:32:10;96418.09;;;6.29;100.00
57114;BME280;42994;51.606;9.988;2024-02-23T01:34:37;96416.28;;;6.30;100.00
57114;BME280;42994;51.606;9.988;2024-02-23T01:37:05;96425.16;;;6.24;100.00
57114;BME280;42994;51.606;9.988;2024-02-23T01:39:31;96416.03;;;6.31;100.00
57114;BME280;42994;51.606;9.988;2024-02-23T01:41:58;96466.63;;;6.13;100.00
57114;BME280;42994;51.606;9.988;2024-02-23T01:44:25;96446.19;;;6.13;100.00
57114;BME280;42994;51.606;9.988;2024-02-23T01:46:51;96454.06;;;6.20;100.00
57114;BME280;42994;51.606;9.988;2024-02-23T01:49:20;96458.06;;;6.11;100.00
57114;BME280;42994;51.606;9.988;2024-02-23T01:51:47;96463.03;;;6.07;100.00
57114;BME280;42994;51.606;9.988;2024-02-23T01:54:16;96473.59;;;6.14;100.00
57114;BME280;42994;51.606;9.988;2024-02-23T01:56:43;96478.97;;;6.07;100.00
57114;BME280;42994;51.606;9.988;2024-02-23T01:59:10;96483.72;;;6.05;100.00
57114;BME280;42994;51.606;9.988;2024-02-23T02:01:37;96493.78;;;6.03;100.00
57114;BME280;42994;51.606;9.988;2024-02-23T02:04:04;96486.59;;;6.04;100.00
57114;BME280;42994;51.606;9.988;2024-02-23T02:06:31;96500.47;;;6.06;100.00
57114;BME280;42994;51.606;9.988;2024-02-23T02:08:57;96497.44;;;6.02;100.00
57114;BME280;42994;51.606;9.988;2024-02-23T02:11:25;96506.34;;;5.96;100.00
57114;BME280;42994;51.606;9.988;2024-02-23T02:13:52;96511.84;;;5.94;100.00
57114;BME280;42994;51.606;9.988;2024-02-23T02:16:19;96519.81;;;5.94;100.00
57114;BME280;42994;51.606;9.988;2024-02-23T02:18:45;96518.06;;;5.88;100.00
57114;BME280;42994;51.606;9.988;2024-02-23T02:21:12;96523.59;;;5.87;100.00
57114;BME280;42994;51.606;9.988;2024-02-23T02:23:39;96533.44;;;5.86;100.00
57114;BME280;42994;51.606;9.988;2024-02-23T02:26:05;96538.44;;;5.76;100.00
57114;BME280;42994;51.606;9.988;2024-02-23T02:28:33;96547.59;;;5.80;100.00
57114;BME280;42994;51.606;9.988;2024-02-23T02:31:00;96544.34;;;5.78;100.00
57114;BME280;42994;51.606;9.988;2024-02-23T02:33:27;96543.31;;;5.79;100.00
57114;BME280;42994;51.606;9.988;2024-02-23T02:35:54;96550.13;;;5.75;100.00
57114;BME280;42994;51.606;9.988;2024-02-23T02:38:20;96556.09;;;5.70;100.00
57114;BME280;42994;51.606;9.988;2024-02-23T02:40:47;96574.25;;;5.55;100.00
57114;BME280;42994;51.606;9.988;2024-02-23T02:43:14;96589.56;;;5.53;100.00
57114;BME280;42994;51.606;9.988;2024-02-23T02:45:42;96596.22;;;5.44;100.00
57114;BME280;42994;51.606;9.988;2024-02-23T02:48:09;96613.94;;;5.25;100.00
57114;BME280;42994;51.606;9.988;2024-02-23T02:50:35;96628.03;;;5.25;100.00
57114;BME280;42994;51.606;9.988;2024-02-23T02:53:02;96615.84;;;5.17;100.00
57114;BME280;42994;51.606;9.988;2024-02-23T02:55:29;96616.13;;;5.09;100.00
57114;BME280;42994;51.606;9.988;2024-02-23T02:57:55;96627.94;;;5.13;100.00
57114;BME280;42994;51.606;9.988;2024-02-23T03:00:22;96640.56;;;5.18;100.00
57114;BME280;42994;51.606;9.988;2024-02-23T03:02:50;96647.16;;;5.09;100.00
57114;BME280;42994;51.606;9.988;2024-02-23T03:05:17;96654.56;;;5.00;100.00
57114;BME280;42994;51.606;9.988;2024-02-23T03:07:43;96658.69;;;4.96;100.00
57114;BME280;42994;51.606;9.988;2024-02-23T03:10:10;96658.09;;;4.87;100.00
57114;BME280;42994;51.606;9.988;2024-02-23T03:12:37;96655.25;;;4.89;100.00
57114;BME280;42994;51.606;9.988;2024-02-23T03:15:04;96665.91;;;4.82;100.00
57114;BME280;42994;51.606;9.988;2024-02-23T03:17:32;96664.69;;;4.78;100.00
57114;BME280;42994;51.606;9.988;2024-02-23T03:20:00;96685.72;;;4.79;100.00
57114;BME280;42994;51.606;9.988;2024-02-23T03:22:30;96674.69;;;4.82;100.00
57114;BME280;42994;51.606;9.988;2024-02-23T03:24:57;96693.69;;;4.79;100.00
57114;BME280;42994;51.606;9.988;2024-02-23T03:27:28;96701.03;;;4.77;100.00
57114;BME280;42994;51.606;9.988;2024-02-23T03:29:55;96701.25;;;4.76;100.00
57114;BME280;42994;51.606;9.988;2024-02-23T03:32:22;96708.22;;;4.70;100.00
57114;BME280;42994;51.606;9.988;2024-02-23T03:34:48;96724.56;;;4.67;100.00
57114;BME280;42994;51.606;9.988;2024-02-23T03:37:18;96717.81;;;4.71;100.00
57114;BME280;42994;51.606;9.988;2024-02-23T03:39:45;96713.78;;;4.55;100.00
57114;BME280;42994;51.606;9.988;2024-02-23T03:42:13;96724.41;;;4.55;100.00
57114;BME280;42994;51.606;9.988;2024-02-23T03:44:40;96734.81;;;4.57;100.00
57114;BME280;42994;51.606;9.988;2024-02-23T03:47:08;96730.97;;;4.53;100.00
57114;BME280;42994;51.606;9.988;2024-02-23T03:49:34;96730.56;;;4.42;100.00
57114;BME280;42994;51.606;9.988;2024-02-23T03:52:01;96734.22;;;4.41;100.00
57114;BME280;42994;51.606;9.988;2024-02-23T03:54:29;96732.78;;;4.52;100.00
57114;BME280;42994;51.606;9.988;2024-02-23T03:56:56;96739.34;;;4.43;100.00
57114;BME280;42994;51.606;9.988;2024-02-23T03:59:23;96741.78;;;4.45;100.00
57114;BME280;42994;51.606;9.988;2024-02-23T04:01:50;96739.78;;;4.40;100.00
57114;BME280;42994;51.606;9.988;2024-02-23T04:04:17;96748.94;;;4.44;100.00
57114;BME280;42994;51.606;9.988;2024-02-23T04:06:44;96758.75;;;4.37;100.00
57114;BME280;42994;51.606;9.988;2024-02-23T04:09:10;96762.19;;;4.44;100.00
57114;BME280;42994;51.606;9.988;2024-02-23T04:11:39;96769.53;;;4.49;100.00
57114;BME280;42994;51.606;9.988;2024-02-23T04:14:06;96776.06;;;4.53;100.00
57114;BME280;42994;51.606;9.988;2024-02-23T04:16:32;96777.69;;;4.47;100.00
57114;BME280;42994;51.606;9.988;2024-02-23T04:19:04;96785.47;;;4.42;100.00
57114;BME280;42994;51.606;9.988;2024-02-23T04:21:31;96789.94;;;4.48;100.00
57114;BME280;42994;51.606;9.988;2024-02-23T04:23:58;96794.84;;;4.51;100.00
57114;BME280;42994;51.606;9.988;2024-02-23T04:26:24;96799.34;;;4.37;100.00
57114;BME280;42994;51.606;9.988;2024-02-23T04:28:53;96810.34;;;4.48;100.00
57114;BME280;42994;51.606;9.988;2024-02-23T04:31:19;96801.34;;;4.49;100.00
57114;BME280;42994;51.606;9.988;2024-02-23T04:33:48;96809.31;;;4.49;100.00
57114;BME280;42994;51.606;9.988;2024-02-23T04:36:18;96814.44;;;4.43;100.00
57114;BME280;42994;51.606;9.988;2024-02-23T04:38:45;96820.56;;;4.37;100.00
57114;BME280;42994;51.606;9.988;2024-02-23T04:41:12;96812.81;;;4.36;100.00
57114;BME280;42994;51.606;9.988;2024-02-23T04:43:39;96815.66;;;4.34;100.00
57114;BME280;42994;51.606;9.988;2024-02-23T04:46:07;96810.59;;;4.33;100.00
57114;BME280;42994;51.606;9.988;2024-02-23T04:48:34;96817.72;;;4.39;100.00
57114;BME280;42994;51.606;9.988;2024-02-23T04:51:01;96822.00;;;4.33;100.00
57114;BME280;42994;51.606;9.988;2024-02-23T04:53:28;96830.75;;;4.34;100.00
57114;BME280;42994;51.606;9.988;2024-02-23T04:55:55;96829.31;;;4.38;100.00
57114;BME280;42994;51.606;9.988;2024-02-23T04:58:21;96833.63;;;4.39;100.00
57114;BME280;42994;51.606;9.988;2024-02-23T05:00:48;96845.88;;;4.33;100.00
57114;BME280;42994;51.606;9.988;2024-02-23T05:03:16;96852.81;;;4.28;100.00
57114;BME280;42994;51.606;9.988;2024-02-23T05:05:43;96850.38;;;4.26;100.00
57114;BME280;42994;51.606;9.988;2024-02-23T05:08:10;96843.81;;;4.35;100.00
57114;BME280;42994;51.606;9.988;2024-02-23T05:10:36;96840.16;;;4.23;100.00
57114;BME280;42994;51.606;9.988;2024-02-23T05:13:03;96846.88;;;4.32;100.00
57114;BME280;42994;51.606;9.988;2024-02-23T05:15:30;96839.34;;;4.29;100.00
57114;BME280;42994;51.606;9.988;2024-02-23T05:17:57;96853.59;;;4.21;100.00
57114;BME280;42994;51.606;9.988;2024-02-23T05:20:25;96844.66;;;4.22;100.00
57114;BME280;42994;51.606;9.988;2024-02-23T05:22:53;96858.09;;;4.21;100.00
57114;BME280;42994;51.606;9.988;2024-02-23T05:25:20;96851.56;;;4.10;100.00
57114;BME280;42994;51.606;9.988;2024-02-23T05:27:47;96833.22;;;4.15;100.00
57114;BME280;42994;51.606;9.988;2024-02-23T05:30:13;96842.19;;;4.14;100.00
57114;BME280;42994;51.606;9.988;2024-02-23T05:32:40;96847.91;;;4.04;100.00
57114;BME280;42994;51.606;9.988;2024-02-23T05:35:07;96851.59;;;4.03;100.00
57114;BME280;42994;51.606;9.988;2024-02-23T05:37:35;96855.25;;;4.09;100.00
57114;BME280;42994;51.606;9.988;2024-02-23T05:40:03;96858.50;;;4.04;100.00
57114;BME280;42994;51.606;9.988;2024-02-23T05:42:32;96854.00;;;4.05;100.00
57114;BME280;42994;51.606;9.988;2024-02-23T05:44:59;96865.84;;;4.02;100.00
57114;BME280;42994;51.606;9.988;2024-02-23T05:47:26;96866.44;;;3.98;100.00
57114;BME280;42994;51.606;9.988;2024-02-23T05:49:53;96863.41;;;4.01;100.00
57114;BME280;42994;51.606;9.988;2024-02-23T05:52:19;96880.50;;;3.78;100.00
57114;BME280;42994;51.606;9.988;2024-02-23T05:54:47;96876.44;;;3.96;100.00
57114;BME280;42994;51.606;9.988;2024-02-23T05:57:14;96876.03;;;3.99;100.00
57114;BME280;42994;51.606;9.988;2024-02-23T05:59:41;96879.69;;;3.98;100.00
57114;BME280;42994;51.606;9.988;2024-02-23T06:02:07;96886.25;;;4.02;100.00
57114;BME280;42994;51.606;9.988;2024-02-23T06:04:34;96883.38;;;3.90;100.00
57114;BME280;42994;51.606;9.988;2024-02-23T06:07:00;96889.09;;;3.94;100.00
57114;BME280;42994;51.606;9.988;2024-02-23T06:09:27;96886.44;;;3.94;100.00
57114;BME280;42994;51.606;9.988;2024-02-23T06:11:55;96891.53;;;3.95;100.00
57114;BME280;42994;51.606;9.988;2024-02-23T06:14:22;96895.00;;;4.02;100.00
57114;BME280;42994;51.606;9.988;2024-02-23T06:16:49;96899.72;;;4.00;100.00
57114;BME280;42994;51.606;9.988;2024-02-23T06:19:16;96901.13;;;3.96;100.00
57114;BME280;42994;51.606;9.988;2024-02-23T06:21:42;96900.91;;;3.98;100.00
57114;BME280;42994;51.606;9.988;2024-02-23T06:24:10;96908.47;;;3.94;100.00
57114;BME280;42994;51.606;9.988;2024-02-23T06:26:36;96899.50;;;3.95;100.00
57114;BME280;42994;51.606;9.988;2024-02-23T06:29:04;96906.81;;;3.93;100.00
57114;BME280;42994;51.606;9.988;2024-02-23T06:31:31;96904.56;;;3.90;100.00
57114;BME280;42994;51.606;9.988;2024-02-23T06:33:59;96915.97;;;3.84;100.00
57114;BME280;42994;51.606;9.988;2024-02-23T06:36:26;96911.91;;;3.88;100.00
57114;BME280;42994;51.606;9.988;2024-02-23T06:38:53;96919.63;;;3.83;100.00
57114;BME280;42994;51.606;9.988;2024-02-23T06:41:19;96917.00;;;3.83;100.00
57114;BME280;42994;51.606;9.988;2024-02-23T06:43:46;96920.28;;;3.92;100.00
57114;BME280;42994;51.606;9.988;2024-02-23T06:46:14;96920.28;;;3.92;100.00
57114;BME280;42994;51.606;9.988;2024-02-23T06:48:41;96932.72;;;3.91;100.00
57114;BME280;42994;51.606;9.988;2024-02-23T06:51:07;96929.25;;;3.84;100.00
57114;BME280;42994;51.606;9.988;2024-02-23T06:53:35;96940.44;;;3.86;100.00
57114;BME280;42994;51.606;9.988;2024-02-23T06:56:01;96949.00;;;3.88;100.00
57114;BME280;42994;51.606;9.988;2024-02-23T06:58:28;96944.31;;;3.90;100.00
57114;BME280;42994;51.606;9.988;2024-02-23T07:00:55;96962.66;;;3.85;100.00
57114;BME280;42994;51.606;9.988;2024-02-23T07:03:23;96954.50;;;3.87;100.00
57114;BME280;42994;51.606;9.988;2024-02-23T07:05:50;96964.91;;;3.88;100.00
57114;BME280;42994;51.606;9.988;2024-02-23T07:08:16;96966.56;;;3.89;100.00
57114;BME280;42994;51.606;9.988;2024-02-23T07:10:43;96976.56;;;3.87;100.00
57114;BME280;42994;51.606;9.988;2024-02-23T07:13:10;96978.16;;;3.88;100.00
57114;BME280;42994;51.606;9.988;2024-02-23T07:15:37;96982.47;;;3.89;100.00
57114;BME280;42994;51.606;9.988;2024-02-23T07:18:04;96983.66;;;3.87;100.00
57114;BME280;42994;51.606;9.988;2024-02-23T07:20:32;96983.69;;;3.93;100.00
57114;BME280;42994;51.606;9.988;2024-02-23T07:22:59;96994.31;;;3.93;100.00
57114;BME280;42994;51.606;9.988;2024-02-23T07:25:25;96998.38;;;3.89;100.00
57114;BME280;42994;51.606;9.988;2024-02-23T07:27:52;97008.56;;;3.92;100.00
57114;BME280;42994;51.606;9.988;2024-02-23T07:30:19;97002.25;;;3.93;100.00
57114;BME280;42994;51.606;9.988;2024-02-23T07:32:46;97018.56;;;3.97;100.00
57114;BME280;42994;51.606;9.988;2024-02-23T07:35:12;97025.09;;;4.01;100.00
57114;BME280;42994;51.606;9.988;2024-02-23T07:37:41;97016.75;;;4.04;100.00
57114;BME280;42994;51.606;9.988;2024-02-23T07:40:08;97023.91;;;4.10;100.00
57114;BME280;42994;51.606;9.988;2024-02-23T07:42:34;97018.84;;;4.15;100.00
57114;BME280;42994;51.606;9.988;2024-02-23T07:45:02;97034.34;;;4.25;100.00
57114;BME280;42994;51.606;9.988;2024-02-23T07:47:29;97035.81;;;4.28;100.00
57114;BME280;42994;51.606;9.988;2024-02-23T07:49:56;97033.56;;;4.31;100.00
57114;BME280;42994;51.606;9.988;2024-02-23T07:52:23;97042.13;;;4.27;100.00
57114;BME280;42994;51.606;9.988;2024-02-23T07:54:51;97038.66;;;4.26;100.00
57114;BME280;42994;51.606;9.988;2024-02-23T07:57:18;97049.25;;;4.26;100.00
57114;BME280;42994;51.606;9.988;2024-02-23T07:59:45;97037.00;;;4.25;100.00
57114;BME280;42994;51.606;9.988;2024-02-23T08:02:11;97050.28;;;4.32;100.00
57114;BME280;42994;51.606;9.988;2024-02-23T08:04:38;97050.31;;;4.38;100.00
57114;BME280;42994;51.606;9.988;2024-02-23T08:07:05;97037.44;;;4.35;100.00
57114;BME280;42994;51.606;9.988;2024-02-23T08:09:32;97056.41;;;4.32;100.00
57114;BME280;42994;51.606;9.988;2024-02-23T08:12:00;97040.50;;;4.26;100.00
57114;BME280;42994;51.606;9.988;2024-02-23T08:14:27;97048.66;;;4.31;100.00
57114;BME280;42994;51.606;9.988;2024-02-23T08:16:53;97050.50;;;4.30;100.00
57114;BME280;42994;51.606;9.988;2024-02-23T08:19:20;97052.75;;;4.33;100.00
57114;BME280;42994;51.606;9.988;2024-02-23T08:21:47;97044.78;;;4.33;100.00
57114;BME280;42994;51.606;9.988;2024-02-23T08:24:13;97046.84;;;4.45;100.00
57114;BME280;42994;51.606;9.988;2024-02-23T08:26:40;97049.50;;;4.45;100.00
57114;BME280;42994;51.606;9.988;2024-02-23T08:29:08;97033.41;;;4.46;100.00
57114;BME280;42994;51.606;9.988;2024-02-23T08:31:35;97026.84;;;4.49;100.00
57114;BME280;42994;51.606;9.988;2024-02-23T08:34:02;97027.88;;;4.54;100.00
57114;BME280;42994;51.606;9.988;2024-02-23T08:36:29;97025.84;;;4.63;100.00
57114;BME280;42994;51.606;9.988;2024-02-23T08:38:55;97019.31;;;4.59;100.00
57114;BME280;42994;51.606;9.988;2024-02-23T08:41:22;97032.78;;;4.57;100.00
57114;BME280;42994;51.606;9.988;2024-02-23T08:43:49;97029.34;;;4.57;100.00
57114;BME280;42994;51.606;9.988;2024-02-23T08:46:17;97029.34;;;4.57;100.00
57114;BME280;42994;51.606;9.988;2024-02-23T08:48:44;97036.69;;;4.68;100.00
57114;BME280;42994;51.606;9.988;2024-02-23T08:51:11;97038.34;;;4.69;100.00
57114;BME280;42994;51.606;9.988;2024-02-23T08:53:38;97046.91;;;4.71;100.00
57114;BME280;42994;51.606;9.988;2024-02-23T08:56:06;97050.38;;;4.72;100.00
57114;BME280;42994;51.606;9.988;2024-02-23T08:58:33;97050.38;;;4.78;100.00
57114;BME280;42994;51.606;9.988;2024-02-23T09:01:00;97047.53;;;4.87;100.00
57114;BME280;42994;51.606;9.988;2024-02-23T09:03:28;97063.84;;;4.84;100.00
57114;BME280;42994;51.606;9.988;2024-02-23T09:05:54;97053.66;;;4.94;100.00
57114;BME280;42994;51.606;9.988;2024-02-23T09:08:21;97053.25;;;4.90;100.00
57114;BME280;42994;51.606;9.988;2024-02-23T09:10:47;97051.00;;;4.94;100.00
57114;BME280;42994;51.606;9.988;2024-02-23T09:13:14;97049.75;;;4.96;100.00
57114;BME280;42994;51.606;9.988;2024-02-23T09:15:42;97042.59;;;5.04;100.00
57114;BME280;42994;51.606;9.988;2024-02-23T09:18:08;97038.13;;;5.17;100.00
57114;BME280;42994;51.606;9.988;2024-02-23T09:20:37;97038.72;;;5.13;100.00
57114;BME280;42994;51.606;9.988;2024-02-23T09:23:04;97036.88;;;5.27;100.00
57114;BME280;42994;51.606;9.988;2024-02-23T09:25:30;97042.59;;;5.37;100.00
57114;BME280;42994;51.606;9.988;2024-02-23T09:27:57;97041.97;;;5.42;100.00
57114;BME280;42994;51.606;9.988;2024-02-23T09:30:24;97045.47;;;5.42;100.00
57114;BME280;42994;51.606;9.988;2024-02-23T09:32:51;97040.16;;;5.42;100.00
57114;BME280;42994;51.606;9.988;2024-02-23T09:35:17;97045.81;;;5.59;100.00
57114;BME280;42994;51.606;9.988;2024-02-23T09:37:46;97050.34;;;5.58;100.00
57114;BME280;42994;51.606;9.988;2024-02-23T09:40:14;97033.69;;;5.76;100.00
57114;BME280;42994;51.606;9.988;2024-02-23T09:42:42;97041.31;;;5.59;100.00
57114;BME280;42994;51.606;9.988;2024-02-23T09:45:10;97044.56;;;5.68;100.00
57114;BME280;42994;51.606;9.988;2024-02-23T09:47:39;97031.47;;;5.73;100.00
57114;BME280;42994;51.606;9.988;2024-02-23T09:50:09;97029.63;;;5.74;100.00
57114;BME280;42994;51.606;9.988;2024-02-23T09:52:36;97033.47;;;5.91;100.00
57114;BME280;42994;51.606;9.988;2024-02-23T09:55:04;97045.13;;;5.84;100.00
57114;BME280;42994;51.606;9.988;2024-02-23T09:57:31;97021.19;;;5.84;100.00
57114;BME280;42994;51.606;9.988;2024-02-23T09:59:59;97028.75;;;5.93;100.00
57114;BME280;42994;51.606;9.988;2024-02-23T10:02:25;97043.06;;;5.86;100.00
57114;BME280;42994;51.606;9.988;2024-02-23T10:04:54;97041.63;;;5.96;100.00
57114;BME280;42994;51.606;9.988;2024-02-23T10:07:23;97035.50;;;6.03;100.00
57114;BME280;42994;51.606;9.988;2024-02-23T10:09:50;97031.09;;;6.22;100.00
57114;BME280;42994;51.606;9.988;2024-02-23T10:12:18;97027.22;;;6.24;100.00
57114;BME280;42994;51.606;9.988;2024-02-23T10:14:45;97033.91;;;6.33;100.00
57114;BME280;42994;51.606;9.988;2024-02-23T10:17:11;97035.41;;;6.23;100.00
57114;BME280;42994;51.606;9.988;2024-02-23T10:19:38;97036.38;;;6.28;100.00
57114;BME280;42994;51.606;9.988;2024-02-23T10:22:05;97042.41;;;6.10;100.00
57114;BME280;42994;51.606;9.988;2024-02-23T10:24:31;97042.78;;;6.21;100.00
57114;BME280;42994;51.606;9.988;2024-02-23T10:27:00;97023.50;;;6.25;100.00
57114;BME280;42994;51.606;9.988;2024-02-23T10:29:30;97013.66;;;6.26;100.00
57114;BME280;42994;51.606;9.988;2024-02-23T10:31:57;97030.63;;;6.31;100.00
57114;BME280;42994;51.606;9.988;2024-02-23T10:34:24;97026.50;;;5.97;100.00
57114;BME280;42994;51.606;9.988;2024-02-23T10:36:54;97038.16;;;5.89;100.00
57114;BME280;42994;51.606;9.988;2024-02-23T10:39:24;97030.16;;;6.03;100.00
57114;BME280;42994;51.606;9.988;2024-02-23T10:41:56;97032.00;;;6.02;100.00
57114;BME280;42994;51.606;9.988;2024-02-23T10:44:23;97053.03;;;6.17;100.00
57114;BME280;42994;51.606;9.988;2024-02-23T10:46:53;97048.31;;;6.19;100.00
57114;BME280;42994;51.606;9.988;2024-02-23T10:49:23;97066.38;;;6.49;100.00
57114;BME280;42994;51.606;9.988;2024-02-23T10:51:51;97064.97;;;6.40;100.00
57114;BME280;42994;51.606;9.988;2024-02-23T10:54:21;97055.41;;;6.32;100.00
57114;BME280;42994;51.606;9.988;2024-02-23T10:56:50;97065.84;;;6.33;100.00
57114;BME280;42994;51.606;9.988;2024-02-23T10:59:16;97053.13;;;6.35;100.00
57114;BME280;42994;51.606;9.988;2024-02-23T11:01:45;97064.88;;;6.14;100.00
57114;BME280;42994;51.606;9.988;2024-02-23T11:04:16;97060.81;;;6.12;100.00
57114;BME280;42994;51.606;9.988;2024-02-23T11:06:49;97066.97;;;6.06;100.00
57114;BME280;42994;51.606;9.988;2024-02-23T11:09:15;97078.66;;;6.05;100.00
57114;BME280;42994;51.606;9.988;2024-02-23T11:11:53;97075.19;;;5.97;100.00
57114;BME280;42994;51.606;9.988;2024-02-23T11:14:29;97065.78;;;5.82;100.00
57114;BME280;42994;51.606;9.988;2024-02-23T11:16:58;97076.63;;;5.93;100.00
57114;BME280;42994;51.606;9.988;2024-02-23T11:19:33;97064.16;;;6.01;100.00
57114;BME280;42994;51.606;9.988;2024-02-23T11:22:01;97065.78;;;5.82;100.00
57114;BME280;42994;51.606;9.988;2024-02-23T11:24:28;97075.22;;;5.84;100.00
57114;BME280;42994;51.606;9.988;2024-02-23T11:26:56;97062.13;;;5.76;100.00
57114;BME280;42994;51.606;9.988;2024-02-23T11:29:26;97056.97;;;6.01;100.00
57114;BME280;42994;51.606;9.988;2024-02-23T11:31:53;97059.78;;;6.13;100.00
57114;BME280;42994;51.606;9.988;2024-02-23T11:34:26;97057.31;;;6.11;100.00
57114;BME280;42994;51.606;9.988;2024-02-23T11:36:55;97057.09;;;6.20;100.00
57114;BME280;42994;51.606;9.988;2024-02-23T11:39:23;97070.72;;;6.37;100.00
57114;BME280;42994;51.606;9.988;2024-02-23T11:41:50;97061.66;;;6.44;100.00
57114;BME280;42994;51.606;9.988;2024-02-23T11:44:17;97061.56;;;6.26;100.00
57114;BME280;42994;51.606;9.988;2024-02-23T11:46:44;97056.81;;;6.34;100.00
57114;BME280;42994;51.606;9.988;2024-02-23T11:49:12;97057.00;;;6.40;100.00
57114;BME280;42994;51.606;9.988;2024-02-23T11:51:38;97073.44;;;6.23;100.00
57114;BME280;42994;51.606;9.988;2024-02-23T11:54:07;97071.78;;;6.29;100.00
57114;BME280;42994;51.606;9.988;2024-02-23T11:56:34;97072.59;;;6.29;100.00
57114;BME280;42994;51.606;9.988;2024-02-23T11:59:01;97066.47;;;6.29;100.00
57114;BME280;42994;51.606;9.988;2024-02-23T12:01:29;97066.06;;;6.32;100.00
57114;BME280;42994;51.606;9.988;2024-02-23T12:03:55;97063.19;;;6.33;100.00
57114;BME280;42994;51.606;9.988;2024-02-23T12:06:22;97067.88;;;6.31;100.00
57114;BME280;42994;51.606;9.988;2024-02-23T12:08:49;97070.97;;;6.28;100.00
57114;BME280;42994;51.606;9.988;2024-02-23T12:11:17;97065.44;;;6.30;100.00
57114;BME280;42994;51.606;9.988;2024-02-23T12:13:45;97065.66;;;6.28;100.00
57114;BME280;42994;51.606;9.988;2024-02-23T12:16:12;97068.50;;;6.33;100.00
57114;BME280;42994;51.606;9.988;2024-02-23T12:18:38;97053.34;;;6.34;100.00
57114;BME280;42994;51.606;9.988;2024-02-23T12:21:06;97051.06;;;6.38;100.00
57114;BME280;42994;51.606;9.988;2024-02-23T12:23:40;97043.69;;;6.40;100.00
57114;BME280;42994;51.606;9.988;2024-02-23T12:26:07;97039.25;;;6.33;100.00
57114;BME280;42994;51.606;9.988;2024-02-23T12:28:36;97037.78;;;6.38;100.00
57114;BME280;42994;51.606;9.988;2024-02-23T12:31:03;97047.59;;;6.37;100.00
57114;BME280;42994;51.606;9.988;2024-02-23T12:33:31;97036.72;;;6.39;100.00
57114;BME280;42994;51.606;9.988;2024-02-23T12:36:19;97030.75;;;6.50;100.00
57114;BME280;42994;51.606;9.988;2024-02-23T12:39:32;97035.44;;;6.48;100.00
57114;BME280;42994;51.606;9.988;2024-02-23T12:42:23;97042.38;;;6.56;100.00
57114;BME280;42994;51.606;9.988;2024-02-23T12:45:17;97036.88;;;6.50;100.00
57114;BME280;42994;51.606;9.988;2024-02-23T12:48:04;97044.00;;;6.57;100.00
57114;BME280;42994;51.606;9.988;2024-02-23T12:51:01;97028.22;;;6.55;100.00
57114;BME280;42994;51.606;9.988;2024-02-23T12:53:57;97034.78;;;6.59;100.00
57114;BME280;42994;51.606;9.988;2024-02-23T12:57:05;97039.72;;;6.56;100.00
57114;BME280;42994;51.606;9.988;2024-02-23T13:07:17;97040.25;;;6.64;100.00
57114;BME280;42994;51.606;9.988;2024-02-23T13:10:41;97049.53;;;6.55;100.00
57114;BME280;42994;51.606;9.988;2024-02-23T13:14:14;97037.59;;;6.64;100.00